createdAt,value
2023-04-26T00:00:21.853Z,95.18
2023-04-26T00:01:21.842Z,95.12
2023-04-26T00:02:21.944Z,95.28
2023-04-26T00:03:21.994Z,95.18
2023-04-26T00:04:21.953Z,95.07
2023-04-26T00:05:21.959Z,94.98
2023-04-26T00:06:21.836Z,95.23
2023-04-26T00:07:21.822Z,95.39
2023-04-26T00:08:21.855Z,95.02
2023-04-26T00:09:21.816Z,95.12
2023-04-26T00:10:21.824Z,95.53
2023-04-26T00:11:21.816Z,95.64
2023-04-26T00:12:21.815Z,95.98
2023-04-26T00:13:21.812Z,95.94
2023-04-26T00:14:21.827Z,95.84
2023-04-26T00:15:21.801Z,95.53
2023-04-26T00:16:21.860Z,95.49
2023-04-26T00:17:21.800Z,96.15
2023-04-26T00:18:21.820Z,96.51
2023-04-26T00:19:21.788Z,96.51
2023-04-26T00:20:21.795Z,95.64
2023-04-26T00:21:21.781Z,96.15
2023-04-26T00:22:21.784Z,96.45
2023-04-26T00:23:21.782Z,95.84
2023-04-26T00:24:21.777Z,95.79
2023-04-26T00:25:21.773Z,96.77
2023-04-26T00:26:21.773Z,96.56
2023-04-26T00:27:21.765Z,96.25
2023-04-26T00:28:21.766Z,96.04
2023-04-26T00:29:21.766Z,96.45
2023-04-26T00:30:21.760Z,96.45
2023-04-26T00:31:21.809Z,96.45
2023-04-26T00:32:21.782Z,96.35
2023-04-26T00:33:21.748Z,96.62
2023-04-26T00:34:21.770Z,96.45
2023-04-26T00:35:21.745Z,96.66
2023-04-26T00:36:21.748Z,96.45
2023-04-26T00:37:21.739Z,96.35
2023-04-26T00:38:21.756Z,96.45
2023-04-26T00:39:21.740Z,96.66
2023-04-26T00:40:21.728Z,96.60
2023-04-26T00:41:21.725Z,96.81
2023-04-26T00:42:21.733Z,96.35
2023-04-26T00:43:21.717Z,96.56
2023-04-26T00:44:21.719Z,96.60
2023-04-26T00:45:21.715Z,97.12
2023-04-26T00:46:21.899Z,97.22
2023-04-26T00:47:21.703Z,96.77
2023-04-26T00:48:21.709Z,97.22
2023-04-26T00:49:21.706Z,96.91
2023-04-26T00:50:21.812Z,97.22
2023-04-26T00:51:21.700Z,97.07
2023-04-26T00:52:21.693Z,96.45
2023-04-26T00:53:21.691Z,96.70
2023-04-26T00:54:21.708Z,97.02
2023-04-26T00:55:21.721Z,97.12
2023-04-26T00:56:21.684Z,97.22
2023-04-26T00:57:21.678Z,97.32
2023-04-26T00:58:21.694Z,97.73
2023-04-26T00:59:21.676Z,97.63
2023-04-26T01:00:21.676Z,97.73
2023-04-26T01:01:21.780Z,97.58
2023-04-26T01:02:21.850Z,97.32
2023-04-26T01:03:21.845Z,97.42
2023-04-26T01:04:21.932Z,97.73
2023-04-26T01:05:21.654Z,97.42
2023-04-26T01:06:21.790Z,97.22
2023-04-26T01:07:21.643Z,97.83
2023-04-26T01:08:21.649Z,97.53
2023-04-26T01:09:21.638Z,97.57
2023-04-26T01:10:21.646Z,97.63
2023-04-26T01:11:21.633Z,97.42
2023-04-26T01:12:21.634Z,97.22
2023-04-26T01:13:21.622Z,97.38
2023-04-26T01:14:21.627Z,97.07
2023-04-26T01:15:21.617Z,97.63
2023-04-26T01:16:21.751Z,97.53
2023-04-26T01:17:21.667Z,98.19
2023-04-26T01:18:21.620Z,98.39
2023-04-26T01:19:21.605Z,98.70
2023-04-26T01:20:21.606Z,99.11
2023-04-26T01:21:21.669Z,98.80
2023-04-26T01:22:21.622Z,99.11
2023-04-26T01:23:21.597Z,98.60
2023-04-26T01:24:21.588Z,98.70
2023-04-26T01:25:21.596Z,98.91
2023-04-26T01:26:21.586Z,98.91
2023-04-26T01:27:21.599Z,99.32
2023-04-26T01:28:21.581Z,98.76
2023-04-26T01:29:21.598Z,98.55
2023-04-26T01:30:21.575Z,98.80
2023-04-26T01:31:21.613Z,98.91
2023-04-26T01:32:21.566Z,99.52
2023-04-26T01:33:21.561Z,99.11
2023-04-26T01:34:21.559Z,98.91
2023-04-26T01:35:21.559Z,99.52
2023-04-26T01:36:21.562Z,99.47
2023-04-26T01:37:21.549Z,99.88
2023-04-26T01:38:21.566Z,99.37
2023-04-26T01:39:21.541Z,99.88
2023-04-26T01:40:21.537Z,99.63
2023-04-26T01:41:21.536Z,99.77
2023-04-26T01:42:21.536Z,99.98
2023-04-26T01:43:21.542Z,99.67
2023-04-26T01:44:21.531Z,99.77
2023-04-26T01:45:21.530Z,99.77
2023-04-26T01:46:21.594Z,99.77
2023-04-26T01:47:21.521Z,99.47
2023-04-26T01:48:21.510Z,99.88
2023-04-26T01:49:21.510Z,99.99
2023-04-26T01:50:21.519Z,99.99
2023-04-26T01:51:21.510Z,99.99
2023-04-26T01:52:21.509Z,99.99
2023-04-26T01:53:21.509Z,99.98
2023-04-26T01:54:21.514Z,99.99
2023-04-26T01:55:21.490Z,99.99
2023-04-26T01:56:21.484Z,99.67
2023-04-26T01:57:21.484Z,99.73
2023-04-26T01:58:21.477Z,99.98
2023-04-26T01:59:21.479Z,99.99
2023-04-26T02:00:21.487Z,99.99
2023-04-26T02:01:21.486Z,99.99
2023-04-26T02:02:21.476Z,99.99
2023-04-26T02:03:21.625Z,99.99
2023-04-26T02:04:21.463Z,99.99
2023-04-26T02:05:21.565Z,99.99
2023-04-26T02:06:21.541Z,99.99
2023-04-26T02:07:21.450Z,99.99
2023-04-26T02:08:21.445Z,99.99
2023-04-26T02:09:21.444Z,99.99
2023-04-26T02:10:21.484Z,99.99
2023-04-26T02:11:21.503Z,99.99
2023-04-26T02:12:21.433Z,99.99
2023-04-26T02:13:21.438Z,99.99
2023-04-26T02:14:21.426Z,99.99
2023-04-26T02:15:21.433Z,99.99
2023-04-26T02:16:21.521Z,99.99
2023-04-26T02:17:21.427Z,99.99
2023-04-26T02:18:21.419Z,99.99
2023-04-26T02:19:21.431Z,99.99
2023-04-26T02:20:21.409Z,99.99
2023-04-26T02:21:21.408Z,99.99
2023-04-26T02:22:21.397Z,99.99
2023-04-26T02:23:21.405Z,99.99
2023-04-26T02:24:21.400Z,99.99
2023-04-26T02:25:21.411Z,99.99
2023-04-26T02:26:21.417Z,99.99
2023-04-26T02:27:21.394Z,99.99
2023-04-26T02:28:21.384Z,99.99
2023-04-26T02:29:29.425Z,99.99
2023-04-26T02:30:21.375Z,99.99
2023-04-26T02:31:23.102Z,99.99
2023-04-26T02:32:21.403Z,99.99
2023-04-26T02:33:21.375Z,99.99
2023-04-26T02:34:21.361Z,99.99
2023-04-26T02:35:21.358Z,99.99
2023-04-26T02:36:21.357Z,99.99
2023-04-26T02:37:21.353Z,99.99
2023-04-26T02:38:21.348Z,99.99
2023-04-26T02:39:21.350Z,99.99
2023-04-26T02:40:21.347Z,99.99
2023-04-26T02:41:21.344Z,99.99
2023-04-26T02:42:21.363Z,99.99
2023-04-26T02:43:21.340Z,99.99
2023-04-26T02:44:21.331Z,99.99
2023-04-26T02:45:21.324Z,99.99
2023-04-26T02:46:21.330Z,99.99
2023-04-26T02:47:21.331Z,99.99
2023-04-26T02:48:21.314Z,99.99
2023-04-26T02:49:21.319Z,99.99
2023-04-26T02:50:21.309Z,99.99
2023-04-26T02:51:21.661Z,99.99
2023-04-26T02:52:21.301Z,99.99
2023-04-26T02:53:21.302Z,99.99
2023-04-26T02:54:21.290Z,99.99
2023-04-26T02:55:21.290Z,99.99
2023-04-26T02:56:21.284Z,99.99
2023-04-26T02:57:21.281Z,99.99
2023-04-26T02:58:21.304Z,99.99
2023-04-26T02:59:21.277Z,99.99
2023-04-26T03:00:21.272Z,99.99
2023-04-26T03:01:21.311Z,99.99
2023-04-26T03:02:21.353Z,99.99
2023-04-26T03:03:21.418Z,99.99
2023-04-26T03:04:21.273Z,99.99
2023-04-26T03:05:21.253Z,99.99
2023-04-26T03:06:21.255Z,99.99
2023-04-26T03:07:21.258Z,99.99
2023-04-26T03:08:21.243Z,99.99
2023-04-26T03:09:21.237Z,99.99
2023-04-26T03:10:21.231Z,99.99
2023-04-26T03:11:21.232Z,99.99
2023-04-26T03:12:21.235Z,99.99
2023-04-26T03:13:21.222Z,99.99
2023-04-26T03:14:21.245Z,99.99
2023-04-26T03:15:21.215Z,99.99
2023-04-26T03:16:21.244Z,99.99
2023-04-26T03:17:21.212Z,99.99
2023-04-26T03:18:21.208Z,99.99
2023-04-26T03:19:21.210Z,99.99
2023-04-26T03:20:21.198Z,99.99
2023-04-26T03:21:21.199Z,99.99
2023-04-26T03:22:21.216Z,99.99
2023-04-26T03:23:21.194Z,99.99
2023-04-26T03:24:21.204Z,99.99
2023-04-26T03:25:21.189Z,99.99
2023-04-26T03:26:21.182Z,99.99
2023-04-26T03:27:21.181Z,99.99
2023-04-26T03:28:21.173Z,99.99
2023-04-26T03:29:21.176Z,99.99
2023-04-26T03:30:21.193Z,99.99
2023-04-26T03:31:21.208Z,99.99
2023-04-26T03:32:21.159Z,99.99
2023-04-26T03:33:21.163Z,99.99
2023-04-26T03:34:21.152Z,99.99
2023-04-26T03:35:21.152Z,99.99
2023-04-26T03:36:21.143Z,99.99
2023-04-26T03:37:21.150Z,99.99
2023-04-26T03:38:21.138Z,99.99
2023-04-26T03:39:21.152Z,99.99
2023-04-26T03:40:21.132Z,99.99
2023-04-26T03:41:21.141Z,99.99
2023-04-26T03:42:21.127Z,99.99
2023-04-26T03:43:21.129Z,99.99
2023-04-26T03:44:21.130Z,99.99
2023-04-26T03:45:21.123Z,99.99
2023-04-26T03:46:21.194Z,99.99
2023-04-26T03:47:21.112Z,99.99
2023-04-26T03:48:21.106Z,99.99
2023-04-26T03:49:21.129Z,99.99
2023-04-26T03:50:21.103Z,99.99
2023-04-26T03:51:21.092Z,99.99
2023-04-26T03:52:21.100Z,99.99
2023-04-26T03:53:21.092Z,99.99
2023-04-26T03:54:21.084Z,99.99
2023-04-26T03:55:21.087Z,99.99
2023-04-26T03:56:21.075Z,99.99
2023-04-26T03:57:21.073Z,99.99
2023-04-26T03:58:21.077Z,99.99
2023-04-26T03:59:21.068Z,99.99
2023-04-26T04:00:21.065Z,99.99
2023-04-26T04:01:21.073Z,99.99
2023-04-26T04:02:21.110Z,99.99
2023-04-26T04:03:21.281Z,99.99
2023-04-26T04:04:21.255Z,99.99
2023-04-26T04:05:21.158Z,99.99
2023-04-26T04:06:21.035Z,99.99
2023-04-26T04:07:21.037Z,99.99
2023-04-26T04:08:21.052Z,99.99
2023-04-26T04:09:21.037Z,99.99
2023-04-26T04:10:21.037Z,99.99
2023-04-26T04:11:21.026Z,99.99
2023-04-26T04:12:21.014Z,99.99
2023-04-26T04:13:21.014Z,99.99
2023-04-26T04:14:21.029Z,99.99
2023-04-26T04:15:21.021Z,99.99
2023-04-26T04:16:21.170Z,99.99
2023-04-26T04:17:20.999Z,99.99
2023-04-26T04:18:21.010Z,99.99
2023-04-26T04:19:20.986Z,99.99
2023-04-26T04:20:20.985Z,99.99
2023-04-26T04:21:21.007Z,99.99
2023-04-26T04:22:20.980Z,99.99
2023-04-26T04:23:20.978Z,99.99
2023-04-26T04:24:20.982Z,99.99
2023-04-26T04:25:20.980Z,99.99
2023-04-26T04:26:20.972Z,99.99
2023-04-26T04:27:20.969Z,99.99
2023-04-26T04:28:20.959Z,99.99
2023-04-26T04:29:20.965Z,99.99
2023-04-26T04:30:20.952Z,99.99
2023-04-26T04:31:20.960Z,99.99
2023-04-26T04:32:20.952Z,99.99
2023-04-26T04:33:20.945Z,99.99
2023-04-26T04:34:20.972Z,99.99
2023-04-26T04:35:20.933Z,99.99
2023-04-26T04:36:20.927Z,99.99
2023-04-26T04:37:20.926Z,99.99
2023-04-26T04:38:20.917Z,99.99
2023-04-26T04:39:20.922Z,99.99
2023-04-26T04:40:20.919Z,99.99
2023-04-26T04:41:20.915Z,99.99
2023-04-26T04:42:20.906Z,99.99
2023-04-26T04:43:20.905Z,99.99
2023-04-26T04:44:20.898Z,99.99
2023-04-26T04:45:20.898Z,99.99
2023-04-26T04:46:20.910Z,99.99
2023-04-26T04:47:20.890Z,99.99
2023-04-26T04:48:20.885Z,99.99
2023-04-26T04:49:20.902Z,99.99
2023-04-26T04:50:21.078Z,99.99
2023-04-26T04:51:20.886Z,99.99
2023-04-26T04:52:20.871Z,99.99
2023-04-26T04:53:20.876Z,99.99
2023-04-26T04:54:20.864Z,99.99
2023-04-26T04:55:20.868Z,99.99
2023-04-26T04:56:20.858Z,99.99
2023-04-26T04:57:20.857Z,99.99
2023-04-26T04:58:20.850Z,99.99
2023-04-26T04:59:20.850Z,99.99
2023-04-26T05:00:20.838Z,99.99
2023-04-26T05:01:20.838Z,99.99
2023-04-26T05:02:21.012Z,99.99
2023-04-26T05:03:21.050Z,99.99
2023-04-26T05:04:21.004Z,99.99
2023-04-26T05:05:20.832Z,99.99
2023-04-26T05:06:20.851Z,99.99
2023-04-26T05:07:20.818Z,99.99
2023-04-26T05:08:20.824Z,99.99
2023-04-26T05:09:20.818Z,99.99
2023-04-26T05:10:20.816Z,99.99
2023-04-26T05:11:20.806Z,99.99
2023-04-26T05:12:20.807Z,99.99
2023-04-26T05:13:20.813Z,99.99
2023-04-26T05:14:20.794Z,99.99
2023-04-26T05:15:20.797Z,99.99
2023-04-26T05:16:20.834Z,99.99
2023-04-26T05:17:20.790Z,99.99
2023-04-26T05:18:20.787Z,99.99
2023-04-26T05:19:20.791Z,99.99
2023-04-26T05:20:20.818Z,99.99
2023-04-26T05:21:20.784Z,99.99
2023-04-26T05:22:20.788Z,99.99
2023-04-26T05:23:20.774Z,99.99
2023-04-26T05:24:20.760Z,99.99
2023-04-26T05:25:22.459Z,99.99
2023-04-26T05:26:20.759Z,99.99
2023-04-26T05:27:20.760Z,99.99
2023-04-26T05:28:20.763Z,99.99
2023-04-26T05:29:20.752Z,99.99
2023-04-26T05:30:20.745Z,99.99
2023-04-26T05:31:20.769Z,99.99
2023-04-26T05:32:20.732Z,99.99
2023-04-26T05:33:20.797Z,99.99
2023-04-26T05:34:20.729Z,99.99
2023-04-26T05:35:20.727Z,99.99
2023-04-26T05:36:20.726Z,99.99
2023-04-26T05:37:20.739Z,99.99
2023-04-26T05:38:20.785Z,99.99
2023-04-26T05:39:20.705Z,99.99
2023-04-26T05:40:20.725Z,99.99
2023-04-26T05:41:20.705Z,99.99
2023-04-26T05:42:20.708Z,99.99
2023-04-26T05:43:20.701Z,99.99
2023-04-26T05:44:20.701Z,99.99
2023-04-26T05:45:20.700Z,99.99
2023-04-26T05:46:20.794Z,99.99
2023-04-26T05:47:20.692Z,99.99
2023-04-26T05:48:20.693Z,99.99
2023-04-26T05:49:20.680Z,99.99
2023-04-26T05:50:20.677Z,99.99
2023-04-26T05:51:20.671Z,99.99
2023-04-26T05:52:20.666Z,99.99
2023-04-26T05:53:20.664Z,99.99
2023-04-26T05:54:20.734Z,99.99
2023-04-26T05:55:20.658Z,99.75
2023-04-26T05:56:20.656Z,99.13
2023-04-26T05:57:20.684Z,99.49
2023-04-26T05:58:20.647Z,98.97
2023-04-26T05:59:20.639Z,99.44
2023-04-26T06:00:20.642Z,99.34
2023-04-26T06:01:20.646Z,99.29
2023-04-26T06:02:20.709Z,98.78
2023-04-26T06:03:20.795Z,99.09
2023-04-26T06:04:20.873Z,98.37
2023-04-26T06:05:20.842Z,98.78
2023-04-26T06:06:20.620Z,98.88
2023-04-26T06:07:20.635Z,98.47
2023-04-26T06:08:20.616Z,98.27
2023-04-26T06:09:20.609Z,98.88
2023-04-26T06:10:20.637Z,98.47
2023-04-26T06:11:20.600Z,98.27
2023-04-26T06:12:20.613Z,97.96
2023-04-26T06:13:20.598Z,98.02
2023-04-26T06:14:29.961Z,97.81
2023-04-26T06:15:20.597Z,97.61
2023-04-26T06:16:20.623Z,97.71
2023-04-26T06:17:20.683Z,97.30
2023-04-26T06:18:20.581Z,97.15
2023-04-26T06:19:20.579Z,97.25
2023-04-26T06:20:20.581Z,96.70
2023-04-26T06:21:20.573Z,96.39
2023-04-26T06:22:20.571Z,96.23
2023-04-26T06:23:20.578Z,96.64
2023-04-26T06:24:20.570Z,96.74
2023-04-26T06:25:20.612Z,96.91
2023-04-26T06:26:20.594Z,96.91
2023-04-26T06:27:20.562Z,96.66
2023-04-26T06:28:20.553Z,95.79
2023-04-26T06:29:20.557Z,95.79
2023-04-26T06:30:20.550Z,95.75
2023-04-26T06:31:20.578Z,94.73
2023-04-26T06:32:20.544Z,94.73
2023-04-26T06:33:20.542Z,94.32
2023-04-26T06:34:20.541Z,94.32
2023-04-26T06:35:20.540Z,94.73
2023-04-26T06:36:20.537Z,93.91
2023-04-26T06:37:20.535Z,93.91
2023-04-26T06:38:20.539Z,93.50
2023-04-26T06:39:20.527Z,93.80
2023-04-26T06:40:20.520Z,93.76
2023-04-26T06:41:20.521Z,93.80
2023-04-26T06:42:20.539Z,93.76
2023-04-26T06:43:20.514Z,93.66
2023-04-26T06:44:20.520Z,93.51
2023-04-26T06:45:20.516Z,93.66
2023-04-26T06:46:20.560Z,93.76
2023-04-26T06:47:20.510Z,92.90
2023-04-26T06:48:20.504Z,92.94
2023-04-26T06:49:20.499Z,92.69
2023-04-26T06:50:20.500Z,92.59
2023-04-26T06:51:20.496Z,92.19
2023-04-26T06:52:21.614Z,92.76
2023-04-26T06:53:22.947Z,92.81
2023-04-26T06:54:20.494Z,91.59
2023-04-26T06:55:20.484Z,91.89
2023-04-26T06:56:20.500Z,91.85
2023-04-26T06:57:20.512Z,91.85
2023-04-26T06:58:20.503Z,91.75
2023-04-26T06:59:20.477Z,91.14
2023-04-26T07:00:20.475Z,90.67
2023-04-26T07:01:20.485Z,91.96
2023-04-26T07:02:20.541Z,91.50
2023-04-26T07:03:20.648Z,90.59
2023-04-26T07:04:20.852Z,90.63
2023-04-26T07:05:20.569Z,90.38
2023-04-26T07:06:20.466Z,89.73
2023-04-26T07:07:20.462Z,89.48
2023-04-26T07:08:20.463Z,88.98
2023-04-26T07:09:20.462Z,89.07
2023-04-26T07:10:20.460Z,88.61
2023-04-26T07:11:20.455Z,88.26
2023-04-26T07:12:20.449Z,87.23
2023-04-26T07:13:20.453Z,86.37
2023-04-26T07:14:20.650Z,85.68
2023-04-26T07:15:20.449Z,84.28
2023-04-26T07:16:20.510Z,83.11
2023-04-26T07:17:20.461Z,80.97
2023-04-26T07:18:20.531Z,79.99
2023-04-26T07:19:20.447Z,78.90
2023-04-26T07:20:20.443Z,77.95
2023-04-26T07:21:20.452Z,77.17
2023-04-26T07:22:20.438Z,75.39
2023-04-26T07:23:20.437Z,75.89
2023-04-26T07:24:20.449Z,74.24
2023-04-26T07:25:20.433Z,73.07
2023-04-26T07:26:20.442Z,72.87
2023-04-26T07:27:20.436Z,72.87
2023-04-26T07:28:20.431Z,72.61
2023-04-26T07:29:20.427Z,73.27
2023-04-26T07:30:20.449Z,73.00
2023-04-26T07:31:20.438Z,72.97
2023-04-26T07:32:20.508Z,72.40
2023-04-26T07:33:20.558Z,71.43
2023-04-26T07:34:20.427Z,72.81
2023-04-26T07:35:20.431Z,73.35
2023-04-26T07:36:21.480Z,72.87
2023-04-26T07:37:20.425Z,72.71
2023-04-26T07:38:20.445Z,72.77
2023-04-26T07:39:20.419Z,71.06
2023-04-26T07:40:20.424Z,71.56
2023-04-26T07:41:20.430Z,71.60
2023-04-26T07:42:20.429Z,71.16
2023-04-26T07:43:20.426Z,71.23
2023-04-26T07:44:20.429Z,70.32
2023-04-26T07:45:20.419Z,67.52
2023-04-26T07:46:20.511Z,69.42
2023-04-26T07:47:20.419Z,70.12
2023-04-26T07:48:20.428Z,70.36
2023-04-26T07:49:20.424Z,67.18
2023-04-26T07:50:20.427Z,67.79
2023-04-26T07:51:20.417Z,67.79
2023-04-26T07:52:20.438Z,68.65
2023-04-26T07:53:20.423Z,69.62
2023-04-26T07:54:20.441Z,70.29
2023-04-26T07:55:20.430Z,69.53
2023-04-26T07:56:20.424Z,68.05
2023-04-26T07:57:20.431Z,69.29
2023-04-26T07:58:20.454Z,69.19
2023-04-26T07:59:20.424Z,69.89
2023-04-26T08:00:20.437Z,71.63
2023-04-26T08:01:20.424Z,71.30
2023-04-26T08:02:27.111Z,72.51
2023-04-26T08:03:20.602Z,72.85
2023-04-26T08:04:20.527Z,74.09
2023-04-26T08:05:20.671Z,75.34
2023-04-26T08:06:20.593Z,75.10
2023-04-26T08:07:20.433Z,73.52
2023-04-26T08:08:20.444Z,71.13
2023-04-26T08:09:20.432Z,71.91
2023-04-26T08:10:20.435Z,72.30
2023-04-26T08:11:20.437Z,69.92
2023-04-26T08:12:20.435Z,67.72
2023-04-26T08:13:20.444Z,67.66
2023-04-26T08:14:20.470Z,66.63
2023-04-26T08:15:20.439Z,65.53
2023-04-26T08:16:20.473Z,65.72
2023-04-26T08:17:20.429Z,66.99
2023-04-26T08:18:20.820Z,67.32
2023-04-26T08:19:20.431Z,66.85
2023-04-26T08:20:20.458Z,67.49
2023-04-26T08:21:20.436Z,66.92
2023-04-26T08:22:20.452Z,68.39
2023-04-26T08:23:20.441Z,67.58
2023-04-26T08:24:20.460Z,69.52
2023-04-26T08:25:20.437Z,68.49
2023-04-26T08:26:20.448Z,68.32
2023-04-26T08:27:20.444Z,69.29
2023-04-26T08:28:20.442Z,69.92
2023-04-26T08:29:20.444Z,71.40
2023-04-26T08:30:20.446Z,71.87
2023-04-26T08:31:20.503Z,72.95
2023-04-26T08:32:20.478Z,72.54
2023-04-26T08:33:20.444Z,73.08
2023-04-26T08:34:20.469Z,73.58
2023-04-26T08:35:20.449Z,73.42
2023-04-26T08:36:20.452Z,73.46
2023-04-26T08:37:20.444Z,76.22
2023-04-26T08:38:20.612Z,75.52
2023-04-26T08:39:20.446Z,77.37
2023-04-26T08:40:20.452Z,77.34
2023-04-26T08:41:20.448Z,78.36
2023-04-26T08:42:20.451Z,79.41
2023-04-26T08:43:20.452Z,80.66
2023-04-26T08:44:20.454Z,82.19
2023-04-26T08:45:20.449Z,81.38
2023-04-26T08:46:20.486Z,81.18
2023-04-26T08:47:20.450Z,81.04
2023-04-26T08:48:20.456Z,80.05
2023-04-26T08:49:20.453Z,78.86
2023-04-26T08:50:20.481Z,77.87
2023-04-26T08:51:20.458Z,77.76
2023-04-26T08:52:20.468Z,75.34
2023-04-26T08:53:20.461Z,75.20
2023-04-26T08:54:20.458Z,73.32
2023-04-26T08:55:20.506Z,73.01
2023-04-26T08:56:20.462Z,71.44
2023-04-26T08:57:20.457Z,72.75
2023-04-26T08:58:20.466Z,73.25
2023-04-26T08:59:20.463Z,72.78
2023-04-26T09:00:20.461Z,73.32
2023-04-26T09:01:20.505Z,73.65
2023-04-26T09:02:20.550Z,72.58
2023-04-26T09:03:20.551Z,72.67
2023-04-26T09:04:20.756Z,70.59
2023-04-26T09:05:20.461Z,69.12
2023-04-26T09:06:20.621Z,67.88
2023-04-26T09:07:20.466Z,68.21
2023-04-26T09:08:20.473Z,69.59
2023-04-26T09:09:20.469Z,70.97
2023-04-26T09:10:20.469Z,73.11
2023-04-26T09:11:20.469Z,73.38
2023-04-26T09:12:20.477Z,73.38
2023-04-26T09:13:20.469Z,73.52
2023-04-26T09:14:20.473Z,73.93
2023-04-26T09:15:20.467Z,75.24
2023-04-26T09:16:20.555Z,75.57
2023-04-26T09:17:20.514Z,76.86
2023-04-26T09:18:20.510Z,75.64
2023-04-26T09:19:20.485Z,75.51
2023-04-26T09:20:20.542Z,75.21
2023-04-26T09:21:20.489Z,76.72
2023-04-26T09:22:20.555Z,77.33
2023-04-26T09:23:20.483Z,75.81
2023-04-26T09:24:20.484Z,75.85
2023-04-26T09:25:20.852Z,77.37
2023-04-26T09:26:20.585Z,77.97
2023-04-26T09:27:20.480Z,76.86
2023-04-26T09:28:20.495Z,78.21
2023-04-26T09:29:20.496Z,77.64
2023-04-26T09:30:20.515Z,77.17
2023-04-26T09:31:20.536Z,78.19
2023-04-26T09:32:20.504Z,77.61
2023-04-26T09:33:20.571Z,78.21
2023-04-26T09:34:20.491Z,75.82
2023-04-26T09:35:20.491Z,75.76
2023-04-26T09:36:20.492Z,75.35
2023-04-26T09:37:20.494Z,76.26
2023-04-26T09:38:20.608Z,76.29
2023-04-26T09:39:20.490Z,77.98
2023-04-26T09:40:20.495Z,77.58
2023-04-26T09:41:20.496Z,78.42
2023-04-26T09:42:20.511Z,77.37
2023-04-26T09:43:20.496Z,78.96
2023-04-26T09:44:20.512Z,77.14
2023-04-26T09:45:20.499Z,75.82
2023-04-26T09:46:20.529Z,75.11
2023-04-26T09:47:20.497Z,75.31
2023-04-26T09:48:20.520Z,73.93
2023-04-26T09:49:20.501Z,72.54
2023-04-26T09:50:20.507Z,71.20
2023-04-26T09:51:20.501Z,69.82
2023-04-26T09:52:20.535Z,69.46
2023-04-26T09:53:20.512Z,67.65
2023-04-26T09:54:20.722Z,67.68
2023-04-26T09:55:34.014Z,67.61
2023-04-26T09:56:20.510Z,67.58
2023-04-26T09:57:20.514Z,68.35
2023-04-26T09:58:20.512Z,68.58
2023-04-26T09:59:20.539Z,68.74
2023-04-26T10:00:20.518Z,70.09
2023-04-26T10:01:20.592Z,71.17
2023-04-26T10:02:20.586Z,71.60
2023-04-26T10:03:20.696Z,72.99
2023-04-26T10:04:20.663Z,73.79
2023-04-26T10:05:20.534Z,74.23
2023-04-26T10:06:20.526Z,73.63
2023-04-26T10:07:20.551Z,73.86
2023-04-26T10:08:20.527Z,76.70
2023-04-26T10:09:20.540Z,75.52
2023-04-26T10:10:20.552Z,74.91
2023-04-26T10:11:20.539Z,73.96
2023-04-26T10:12:20.537Z,73.15
2023-04-26T10:13:20.537Z,71.73
2023-04-26T10:14:20.537Z,72.44
2023-04-26T10:15:20.545Z,72.78
2023-04-26T10:16:20.573Z,72.88
2023-04-26T10:17:20.557Z,73.12
2023-04-26T10:18:20.552Z,73.86
2023-04-26T10:19:20.548Z,73.46
2023-04-26T10:20:20.587Z,74.33
2023-04-26T10:21:20.558Z,75.04
2023-04-26T10:22:20.552Z,76.26
2023-04-26T10:23:20.564Z,76.70
2023-04-26T10:24:20.565Z,77.01
2023-04-26T10:25:20.556Z,77.28
2023-04-26T10:26:20.590Z,76.60
2023-04-26T10:27:20.558Z,76.03
2023-04-26T10:28:20.563Z,75.66
2023-04-26T10:29:20.576Z,76.17
2023-04-26T10:30:20.566Z,75.96
2023-04-26T10:31:20.572Z,76.27
2023-04-26T10:32:20.558Z,75.86
2023-04-26T10:33:20.617Z,76.47
2023-04-26T10:34:20.559Z,76.27
2023-04-26T10:35:20.563Z,76.78
2023-04-26T10:36:20.568Z,76.81
2023-04-26T10:37:20.570Z,78.50
2023-04-26T10:38:20.566Z,79.11
2023-04-26T10:39:20.657Z,78.26
2023-04-26T10:40:20.565Z,78.66
2023-04-26T10:41:20.566Z,77.51
2023-04-26T10:42:21.942Z,78.19
2023-04-26T10:43:20.564Z,76.53
2023-04-26T10:44:20.572Z,75.52
2023-04-26T10:45:20.575Z,76.32
2023-04-26T10:46:20.602Z,75.82
2023-04-26T10:47:20.604Z,75.38
2023-04-26T10:48:20.573Z,73.36
2023-04-26T10:49:20.565Z,73.19
2023-04-26T10:50:20.566Z,73.59
2023-04-26T10:51:20.566Z,73.66
2023-04-26T10:52:20.590Z,73.59
2023-04-26T10:53:20.570Z,73.29
2023-04-26T10:54:20.571Z,73.29
2023-04-26T10:55:20.576Z,74.51
2023-04-26T10:56:20.565Z,73.83
2023-04-26T10:57:20.581Z,74.84
2023-04-26T10:58:20.587Z,73.80
2023-04-26T10:59:36.350Z,74.04
2023-04-26T11:00:20.568Z,74.48
2023-04-26T11:01:20.664Z,75.70
2023-04-26T11:02:20.574Z,75.63
2023-04-26T11:03:20.715Z,75.59
2023-04-26T11:04:20.669Z,75.93
2023-04-26T11:05:20.577Z,75.63
2023-04-26T11:06:20.571Z,76.85
2023-04-26T11:07:20.579Z,76.14
2023-04-26T11:08:20.591Z,76.61
2023-04-26T11:09:20.575Z,76.10
2023-04-26T11:10:20.569Z,76.75
2023-04-26T11:11:20.566Z,76.20
2023-04-26T11:12:20.575Z,77.05
2023-04-26T11:13:20.575Z,77.56
2023-04-26T11:14:20.604Z,76.03
2023-04-26T11:15:20.573Z,77.62
2023-04-26T11:16:20.711Z,77.52
2023-04-26T11:17:20.590Z,77.38
2023-04-26T11:18:20.570Z,77.31
2023-04-26T11:19:20.576Z,76.52
2023-04-26T11:20:20.579Z,72.20
2023-04-26T11:21:20.581Z,70.15
2023-04-26T11:22:20.577Z,70.26
2023-04-26T11:23:20.583Z,69.45
2023-04-26T11:24:20.585Z,69.62
2023-04-26T11:25:20.577Z,69.45
2023-04-26T11:26:20.576Z,70.97
2023-04-26T11:27:20.583Z,70.49
2023-04-26T11:28:20.593Z,70.62
2023-04-26T11:29:20.574Z,71.47
2023-04-26T11:30:20.614Z,72.31
2023-04-26T11:31:20.609Z,73.05
2023-04-26T11:32:20.583Z,71.97
2023-04-26T11:33:20.599Z,72.78
2023-04-26T11:34:20.578Z,72.38
2023-04-26T11:35:20.585Z,72.01
2023-04-26T11:36:20.583Z,72.11
2023-04-26T11:37:20.581Z,72.11
2023-04-26T11:38:20.576Z,70.93
2023-04-26T11:39:20.595Z,71.44
2023-04-26T11:40:20.584Z,71.06
2023-04-26T11:41:20.584Z,71.47
2023-04-26T11:42:20.587Z,71.23
2023-04-26T11:43:20.637Z,71.33
2023-04-26T11:44:20.597Z,71.09
2023-04-26T11:45:20.588Z,71.67
2023-04-26T11:46:20.679Z,71.80
2023-04-26T11:47:20.590Z,70.49
2023-04-26T11:48:20.664Z,69.89
2023-04-26T11:49:20.587Z,69.75
2023-04-26T11:50:20.587Z,69.79
2023-04-26T11:51:20.597Z,68.77
2023-04-26T11:52:20.590Z,68.54
2023-04-26T11:53:20.611Z,68.65
2023-04-26T11:54:20.626Z,67.40
2023-04-26T11:55:20.597Z,65.89
2023-04-26T11:56:20.645Z,65.82
2023-04-26T11:57:20.599Z,66.83
2023-04-26T11:58:20.593Z,67.91
2023-04-26T11:59:20.596Z,66.56
2023-04-26T12:00:20.625Z,68.44
2023-04-26T12:01:20.602Z,68.44
2023-04-26T12:02:20.721Z,67.97
2023-04-26T12:03:20.835Z,66.14
2023-04-26T12:04:20.778Z,65.84
2023-04-26T12:05:20.636Z,66.74
2023-04-26T12:06:20.646Z,66.97
2023-04-26T12:07:20.608Z,66.53
2023-04-26T12:08:20.602Z,67.81
2023-04-26T12:09:20.606Z,67.57
2023-04-26T12:10:20.621Z,67.60
2023-04-26T12:11:20.614Z,67.74
2023-04-26T12:12:20.609Z,67.77
2023-04-26T12:13:20.614Z,68.57
2023-04-26T12:14:20.613Z,68.51
2023-04-26T12:15:20.612Z,67.60
2023-04-26T12:16:26.321Z,68.95
2023-04-26T12:17:20.760Z,68.64
2023-04-26T12:18:20.696Z,68.84
2023-04-26T12:19:20.621Z,69.01
2023-04-26T12:20:20.614Z,70.05
2023-04-26T12:21:20.623Z,69.62
2023-04-26T12:22:20.633Z,70.02
2023-04-26T12:23:20.632Z,70.02
2023-04-26T12:24:20.629Z,69.58
2023-04-26T12:25:20.629Z,68.37
2023-04-26T12:26:20.700Z,67.77
2023-04-26T12:27:20.638Z,67.44
2023-04-26T12:28:20.638Z,64.43
2023-04-26T12:29:20.633Z,63.33
2023-04-26T12:30:20.630Z,62.10
2023-04-26T12:31:20.663Z,62.01
2023-04-26T12:32:22.535Z,61.48
2023-04-26T12:34:38.286Z,59.70
2023-04-26T12:35:38.259Z,60.05
2023-04-26T12:36:38.266Z,58.12
2023-04-26T12:37:38.269Z,58.97
2023-04-26T12:38:38.284Z,57.17
2023-04-26T12:39:38.274Z,57.46
2023-04-26T12:40:38.278Z,59.61
2023-04-26T12:41:38.281Z,59.66
2023-04-26T12:42:38.302Z,60.12
2023-04-26T12:43:38.299Z,59.94
2023-04-26T12:44:38.317Z,62.17
2023-04-26T12:45:38.318Z,63.20
2023-04-26T12:46:38.532Z,63.87
2023-04-26T12:47:38.354Z,64.37
2023-04-26T12:48:38.323Z,64.47
2023-04-26T12:49:38.330Z,64.70
2023-04-26T12:50:38.473Z,65.53
2023-04-26T12:51:38.333Z,65.94
2023-04-26T12:52:38.348Z,65.56
2023-04-26T12:53:38.348Z,64.39